sensor_id;sensor_type;location;lat;lon;timestamp;temperature;humidity
3784;DHT22;1907;49.238;9.262;2022-07-01T00:00:36;15.80;99.90
3784;DHT22;1907;49.238;9.262;2022-07-01T00:03:02;15.70;99.90
3784;DHT22;1907;49.238;9.262;2022-07-01T00:05:27;15.70;99.90
3784;DHT22;1907;49.238;9.262;2022-07-01T00:07:53;15.70;99.90
3784;DHT22;1907;49.238;9.262;2022-07-01T00:10:19;15.60;99.90
3784;DHT22;1907;49.238;9.262;2022-07-01T00:12:45;15.60;99.90
3784;DHT22;1907;49.238;9.262;2022-07-01T00:15:12;15.60;99.90
3784;DHT22;1907;49.238;9.262;2022-07-01T00:17:38;15.50;99.90
3784;DHT22;1907;49.238;9.262;2022-07-01T00:20:06;15.50;99.90
3784;DHT22;1907;49.238;9.262;2022-07-01T00:22:33;15.50;99.90
3784;DHT22;1907;49.238;9.262;2022-07-01T00:24:59;15.40;99.90
3784;DHT22;1907;49.238;9.262;2022-07-01T00:27:25;15.40;99.90
3784;DHT22;1907;49.238;9.262;2022-07-01T00:29:50;15.40;99.90
3784;DHT22;1907;49.238;9.262;2022-07-01T00:32:16;15.40;99.90
3784;DHT22;1907;49.238;9.262;2022-07-01T00:34:41;15.40;99.90
3784;DHT22;1907;49.238;9.262;2022-07-01T00:37:07;15.40;99.90
3784;DHT22;1907;49.238;9.262;2022-07-01T00:39:33;15.30;99.90
3784;DHT22;1907;49.238;9.262;2022-07-01T00:42:02;15.30;99.90
3784;DHT22;1907;49.238;9.262;2022-07-01T00:44:28;15.30;99.90
3784;DHT22;1907;49.238;9.262;2022-07-01T00:46:54;15.30;99.90
3784;DHT22;1907;49.238;9.262;2022-07-01T00:49:20;15.20;99.90
3784;DHT22;1907;49.238;9.262;2022-07-01T00:51:47;15.20;99.90
3784;DHT22;1907;49.238;9.262;2022-07-01T00:54:13;15.10;99.90
3784;DHT22;1907;49.238;9.262;2022-07-01T00:56:39;15.10;99.90
3784;DHT22;1907;49.238;9.262;2022-07-01T00:59:05;15.10;99.90
3784;DHT22;1907;49.238;9.262;2022-07-01T01:01:30;15.00;99.90
3784;DHT22;1907;49.238;9.262;2022-07-01T01:03:56;15.00;99.90
3784;DHT22;1907;49.238;9.262;2022-07-01T01:06:22;15.00;99.90
3784;DHT22;1907;49.238;9.262;2022-07-01T01:08:48;15.00;99.90
3784;DHT22;1907;49.238;9.262;2022-07-01T01:11:15;14.90;99.90
3784;DHT22;1907;49.238;9.262;2022-07-01T01:13:41;14.90;99.90
3784;DHT22;1907;49.238;9.262;2022-07-01T01:16:07;14.90;99.90
3784;DHT22;1907;49.238;9.262;2022-07-01T01:18:34;14.90;99.90
3784;DHT22;1907;49.238;9.262;2022-07-01T01:21:00;14.90;99.90
3784;DHT22;1907;49.238;9.262;2022-07-01T01:23:25;14.90;99.90
3784;DHT22;1907;49.238;9.262;2022-07-01T01:25:51;14.80;99.90
3784;DHT22;1907;49.238;9.262;2022-07-01T01:28:17;14.90;99.90
3784;DHT22;1907;49.238;9.262;2022-07-01T01:30:43;14.80;99.90
3784;DHT22;1907;49.238;9.262;2022-07-01T01:33:09;14.80;99.90
3784;DHT22;1907;49.238;9.262;2022-07-01T01:35:37;14.80;99.90
3784;DHT22;1907;49.238;9.262;2022-07-01T01:38:03;14.90;99.90
3784;DHT22;1907;49.238;9.262;2022-07-01T01:40:28;14.80;99.90
3784;DHT22;1907;49.238;9.262;2022-07-01T01:42:54;14.80;99.90
3784;DHT22;1907;49.238;9.262;2022-07-01T01:45:20;14.80;99.90
3784;DHT22;1907;49.238;9.262;2022-07-01T01:47:45;14.80;99.90
3784;DHT22;1907;49.238;9.262;2022-07-01T01:50:12;14.80;99.90
3784;DHT22;1907;49.238;9.262;2022-07-01T01:52:39;14.80;99.90
3784;DHT22;1907;49.238;9.262;2022-07-01T01:55:08;14.80;99.90
3784;DHT22;1907;49.238;9.262;2022-07-01T01:57:34;14.80;99.90
3784;DHT22;1907;49.238;9.262;2022-07-01T02:00:00;14.80;99.90
3784;DHT22;1907;49.238;9.262;2022-07-01T02:02:26;14.80;99.90
3784;DHT22;1907;49.238;9.262;2022-07-01T02:04:51;14.80;99.90
3784;DHT22;1907;49.238;9.262;2022-07-01T02:07:17;14.80;99.90
3784;DHT22;1907;49.238;9.262;2022-07-01T02:09:43;14.70;99.90
3784;DHT22;1907;49.238;9.262;2022-07-01T02:12:09;14.70;99.90
3784;DHT22;1907;49.238;9.262;2022-07-01T02:14:34;14.70;99.90
3784;DHT22;1907;49.238;9.262;2022-07-01T02:17:00;14.70;99.90
3784;DHT22;1907;49.238;9.262;2022-07-01T02:19:26;14.70;99.90
3784;DHT22;1907;49.238;9.262;2022-07-01T02:21:51;14.70;99.90
3784;DHT22;1907;49.238;9.262;2022-07-01T02:24:18;14.60;99.90
3784;DHT22;1907;49.238;9.262;2022-07-01T02:26:44;14.60;99.90
3784;DHT22;1907;49.238;9.262;2022-07-01T02:29:10;14.60;99.90
3784;DHT22;1907;49.238;9.262;2022-07-01T02:31:35;14.60;99.90
3784;DHT22;1907;49.238;9.262;2022-07-01T02:34:01;14.50;99.90
3784;DHT22;1907;49.238;9.262;2022-07-01T02:36:27;14.50;99.90
3784;DHT22;1907;49.238;9.262;2022-07-01T02:38:53;14.50;99.90
3784;DHT22;1907;49.238;9.262;2022-07-01T02:41:18;14.50;99.90
3784;DHT22;1907;49.238;9.262;2022-07-01T02:43:44;14.50;99.90
3784;DHT22;1907;49.238;9.262;2022-07-01T02:46:09;14.60;99.90
3784;DHT22;1907;49.238;9.262;2022-07-01T02:48:35;14.60;99.90
3784;DHT22;1907;49.238;9.262;2022-07-01T02:51:01;14.60;99.90
3784;DHT22;1907;49.238;9.262;2022-07-01T02:53:26;14.50;99.90
3784;DHT22;1907;49.238;9.262;2022-07-01T02:55:52;14.50;99.90
3784;DHT22;1907;49.238;9.262;2022-07-01T02:58:18;14.60;99.90
3784;DHT22;1907;49.238;9.262;2022-07-01T03:00:43;14.60;99.90
3784;DHT22;1907;49.238;9.262;2022-07-01T03:03:09;14.60;99.90
3784;DHT22;1907;49.238;9.262;2022-07-01T03:05:35;14.60;99.90
3784;DHT22;1907;49.238;9.262;2022-07-01T03:08:00;14.60;99.90
3784;DHT22;1907;49.238;9.262;2022-07-01T03:10:26;14.60;99.90
3784;DHT22;1907;49.238;9.262;2022-07-01T03:12:52;14.70;99.90
3784;DHT22;1907;49.238;9.262;2022-07-01T03:15:18;14.60;99.90
3784;DHT22;1907;49.238;9.262;2022-07-01T03:17:45;14.60;99.90
3784;DHT22;1907;49.238;9.262;2022-07-01T03:20:16;14.60;99.90
3784;DHT22;1907;49.238;9.262;2022-07-01T03:22:43;14.60;99.90
3784;DHT22;1907;49.238;9.262;2022-07-01T03:25:10;14.60;99.90
3784;DHT22;1907;49.238;9.262;2022-07-01T03:27:36;14.60;99.90
3784;DHT22;1907;49.238;9.262;2022-07-01T03:30:03;14.60;99.90
3784;DHT22;1907;49.238;9.262;2022-07-01T03:32:29;14.60;99.90
3784;DHT22;1907;49.238;9.262;2022-07-01T03:34:55;14.60;99.90
3784;DHT22;1907;49.238;9.262;2022-07-01T03:37:22;14.60;99.90
3784;DHT22;1907;49.238;9.262;2022-07-01T03:39:48;14.70;99.90
3784;DHT22;1907;49.238;9.262;2022-07-01T03:42:14;14.80;99.90
3784;DHT22;1907;49.238;9.262;2022-07-01T03:44:40;14.80;99.90
3784;DHT22;1907;49.238;9.262;2022-07-01T03:47:06;14.80;99.90
3784;DHT22;1907;49.238;9.262;2022-07-01T03:49:35;14.80;99.90
3784;DHT22;1907;49.238;9.262;2022-07-01T03:52:02;14.80;99.90
3784;DHT22;1907;49.238;9.262;2022-07-01T03:54:28;14.80;99.90
3784;DHT22;1907;49.238;9.262;2022-07-01T03:57:04;14.80;99.90
3784;DHT22;1907;49.238;9.262;2022-07-01T03:59:33;14.80;99.90
3784;DHT22;1907;49.238;9.262;2022-07-01T04:01:59;14.80;99.90
3784;DHT22;1907;49.238;9.262;2022-07-01T04:04:26;14.80;99.90
3784;DHT22;1907;49.238;9.262;2022-07-01T04:06:57;14.80;99.90
3784;DHT22;1907;49.238;9.262;2022-07-01T04:09:24;14.90;99.90
3784;DHT22;1907;49.238;9.262;2022-07-01T04:11:50;14.90;99.90
3784;DHT22;1907;49.238;9.262;2022-07-01T04:14:16;15.00;99.90
3784;DHT22;1907;49.238;9.262;2022-07-01T04:16:43;15.00;99.90
3784;DHT22;1907;49.238;9.262;2022-07-01T04:19:09;14.90;99.90
3784;DHT22;1907;49.238;9.262;2022-07-01T04:21:36;15.00;99.90
3784;DHT22;1907;49.238;9.262;2022-07-01T04:24:21;15.00;99.90
3784;DHT22;1907;49.238;9.262;2022-07-01T04:26:48;15.00;99.90
3784;DHT22;1907;49.238;9.262;2022-07-01T04:29:14;15.00;99.90
3784;DHT22;1907;49.238;9.262;2022-07-01T04:31:40;15.00;99.90
3784;DHT22;1907;49.238;9.262;2022-07-01T04:34:07;15.10;99.90
3784;DHT22;1907;49.238;9.262;2022-07-01T04:36:34;15.10;99.90
3784;DHT22;1907;49.238;9.262;2022-07-01T04:39:00;15.10;99.90
3784;DHT22;1907;49.238;9.262;2022-07-01T04:41:26;15.10;99.90
3784;DHT22;1907;49.238;9.262;2022-07-01T04:44:10;15.20;99.90
3784;DHT22;1907;49.238;9.262;2022-07-01T04:46:36;15.20;99.90
3784;DHT22;1907;49.238;9.262;2022-07-01T04:49:02;15.10;99.90
3784;DHT22;1907;49.238;9.262;2022-07-01T04:51:28;15.10;99.90
3784;DHT22;1907;49.238;9.262;2022-07-01T04:53:54;15.00;99.90
3784;DHT22;1907;49.238;9.262;2022-07-01T04:56:20;15.00;99.90
3784;DHT22;1907;49.238;9.262;2022-07-01T04:58:46;15.00;99.90
3784;DHT22;1907;49.238;9.262;2022-07-01T05:01:11;15.00;99.90
3784;DHT22;1907;49.238;9.262;2022-07-01T05:03:39;14.90;99.90
3784;DHT22;1907;49.238;9.262;2022-07-01T05:06:05;14.90;99.90
3784;DHT22;1907;49.238;9.262;2022-07-01T05:08:31;14.90;99.90
3784;DHT22;1907;49.238;9.262;2022-07-01T05:10:57;14.90;99.90
3784;DHT22;1907;49.238;9.262;2022-07-01T05:13:22;14.90;99.90
3784;DHT22;1907;49.238;9.262;2022-07-01T05:15:48;14.90;99.90
3784;DHT22;1907;49.238;9.262;2022-07-01T05:18:15;14.90;99.90
3784;DHT22;1907;49.238;9.262;2022-07-01T05:20:59;15.00;99.90
3784;DHT22;1907;49.238;9.262;2022-07-01T05:23:43;15.00;99.90
3784;DHT22;1907;49.238;9.262;2022-07-01T05:26:08;15.00;99.90
3784;DHT22;1907;49.238;9.262;2022-07-01T05:28:34;15.00;99.90
3784;DHT22;1907;49.238;9.262;2022-07-01T05:31:00;14.90;99.90
3784;DHT22;1907;49.238;9.262;2022-07-01T05:33:25;14.90;99.90
3784;DHT22;1907;49.238;9.262;2022-07-01T05:35:54;14.90;99.90
3784;DHT22;1907;49.238;9.262;2022-07-01T05:38:19;14.90;99.90
3784;DHT22;1907;49.238;9.262;2022-07-01T05:40:45;14.90;99.90
3784;DHT22;1907;49.238;9.262;2022-07-01T05:43:11;14.90;99.90
3784;DHT22;1907;49.238;9.262;2022-07-01T05:45:37;14.90;99.90
3784;DHT22;1907;49.238;9.262;2022-07-01T05:48:03;15.00;99.90
3784;DHT22;1907;49.238;9.262;2022-07-01T05:50:28;14.90;99.90
3784;DHT22;1907;49.238;9.262;2022-07-01T05:52:54;14.90;99.90
3784;DHT22;1907;49.238;9.262;2022-07-01T05:55:19;14.90;99.90
3784;DHT22;1907;49.238;9.262;2022-07-01T05:57:45;14.90;99.90
3784;DHT22;1907;49.238;9.262;2022-07-01T06:00:11;14.90;99.90
3784;DHT22;1907;49.238;9.262;2022-07-01T06:02:37;14.90;99.90
3784;DHT22;1907;49.238;9.262;2022-07-01T06:05:03;14.90;99.90
3784;DHT22;1907;49.238;9.262;2022-07-01T06:07:29;15.00;99.90
3784;DHT22;1907;49.238;9.262;2022-07-01T06:09:58;15.00;99.90
3784;DHT22;1907;49.238;9.262;2022-07-01T06:12:23;15.00;99.90
3784;DHT22;1907;49.238;9.262;2022-07-01T06:14:49;15.00;99.90
3784;DHT22;1907;49.238;9.262;2022-07-01T06:17:15;15.00;99.90
3784;DHT22;1907;49.238;9.262;2022-07-01T06:19:41;15.10;99.90
3784;DHT22;1907;49.238;9.262;2022-07-01T06:22:07;15.10;99.90
3784;DHT22;1907;49.238;9.262;2022-07-01T06:24:32;15.00;99.90
3784;DHT22;1907;49.238;9.262;2022-07-01T06:26:58;15.00;99.90
3784;DHT22;1907;49.238;9.262;2022-07-01T06:29:25;15.10;99.90
3784;DHT22;1907;49.238;9.262;2022-07-01T06:31:54;15.00;99.90
3784;DHT22;1907;49.238;9.262;2022-07-01T06:34:20;15.00;99.90
3784;DHT22;1907;49.238;9.262;2022-07-01T06:36:46;15.00;99.90
3784;DHT22;1907;49.238;9.262;2022-07-01T06:39:11;15.00;99.90
3784;DHT22;1907;49.238;9.262;2022-07-01T06:41:37;15.00;99.90
3784;DHT22;1907;49.238;9.262;2022-07-01T06:44:03;14.90;99.90
3784;DHT22;1907;49.238;9.262;2022-07-01T06:46:30;14.90;99.90
3784;DHT22;1907;49.238;9.262;2022-07-01T06:48:57;14.90;99.90
3784;DHT22;1907;49.238;9.262;2022-07-01T06:51:24;14.90;99.90
3784;DHT22;1907;49.238;9.262;2022-07-01T06:53:50;14.90;99.90
3784;DHT22;1907;49.238;9.262;2022-07-01T06:56:17;14.90;99.90
3784;DHT22;1907;49.238;9.262;2022-07-01T06:58:43;14.90;99.90
3784;DHT22;1907;49.238;9.262;2022-07-01T07:01:09;14.90;99.90
3784;DHT22;1907;49.238;9.262;2022-07-01T07:03:35;15.00;99.90
3784;DHT22;1907;49.238;9.262;2022-07-01T07:06:01;14.90;99.90
3784;DHT22;1907;49.238;9.262;2022-07-01T07:08:28;14.90;99.90
3784;DHT22;1907;49.238;9.262;2022-07-01T07:10:54;14.90;99.90
3784;DHT22;1907;49.238;9.262;2022-07-01T07:13:19;14.90;99.90
3784;DHT22;1907;49.238;9.262;2022-07-01T07:15:45;14.90;99.90
3784;DHT22;1907;49.238;9.262;2022-07-01T07:18:11;14.90;99.90
3784;DHT22;1907;49.238;9.262;2022-07-01T07:20:37;14.90;99.90
3784;DHT22;1907;49.238;9.262;2022-07-01T07:23:03;14.90;99.90
3784;DHT22;1907;49.238;9.262;2022-07-01T07:25:29;15.00;99.90
3784;DHT22;1907;49.238;9.262;2022-07-01T07:27:54;14.90;99.90
3784;DHT22;1907;49.238;9.262;2022-07-01T07:30:20;15.00;99.90
3784;DHT22;1907;49.238;9.262;2022-07-01T07:32:46;15.00;99.90
3784;DHT22;1907;49.238;9.262;2022-07-01T07:35:12;15.00;99.90
3784;DHT22;1907;49.238;9.262;2022-07-01T07:37:38;15.10;99.90
3784;DHT22;1907;49.238;9.262;2022-07-01T07:40:06;15.20;99.90
3784;DHT22;1907;49.238;9.262;2022-07-01T07:42:33;15.20;99.90
3784;DHT22;1907;49.238;9.262;2022-07-01T07:44:59;15.30;99.90
3784;DHT22;1907;49.238;9.262;2022-07-01T07:47:25;15.50;99.90
3784;DHT22;1907;49.238;9.262;2022-07-01T07:49:51;15.80;99.90
3784;DHT22;1907;49.238;9.262;2022-07-01T07:52:16;15.90;99.90
3784;DHT22;1907;49.238;9.262;2022-07-01T07:54:42;16.20;99.90
3784;DHT22;1907;49.238;9.262;2022-07-01T07:57:07;16.30;99.90
3784;DHT22;1907;49.238;9.262;2022-07-01T07:59:34;16.40;99.90
3784;DHT22;1907;49.238;9.262;2022-07-01T08:02:00;16.40;99.90
3784;DHT22;1907;49.238;9.262;2022-07-01T08:04:26;16.50;99.90
3784;DHT22;1907;49.238;9.262;2022-07-01T08:06:51;16.50;99.90
3784;DHT22;1907;49.238;9.262;2022-07-01T08:09:17;16.70;99.90
3784;DHT22;1907;49.238;9.262;2022-07-01T08:11:44;16.80;99.90
3784;DHT22;1907;49.238;9.262;2022-07-01T08:14:10;16.70;99.90
3784;DHT22;1907;49.238;9.262;2022-07-01T08:16:36;16.60;99.90
3784;DHT22;1907;49.238;9.262;2022-07-01T08:19:01;16.50;99.90
3784;DHT22;1907;49.238;9.262;2022-07-01T08:21:28;16.40;99.90
3784;DHT22;1907;49.238;9.262;2022-07-01T08:23:54;16.40;99.90
3784;DHT22;1907;49.238;9.262;2022-07-01T08:26:19;16.50;99.90
3784;DHT22;1907;49.238;9.262;2022-07-01T08:28:45;16.40;99.90
3784;DHT22;1907;49.238;9.262;2022-07-01T08:31:11;16.40;99.90
3784;DHT22;1907;49.238;9.262;2022-07-01T08:33:36;16.30;99.90
3784;DHT22;1907;49.238;9.262;2022-07-01T08:36:06;16.30;99.90
3784;DHT22;1907;49.238;9.262;2022-07-01T08:38:32;16.40;99.90
3784;DHT22;1907;49.238;9.262;2022-07-01T08:40:59;16.50;99.90
3784;DHT22;1907;49.238;9.262;2022-07-01T08:43:26;16.40;99.90
3784;DHT22;1907;49.238;9.262;2022-07-01T08:45:53;16.30;99.90
3784;DHT22;1907;49.238;9.262;2022-07-01T08:48:19;16.30;99.90
3784;DHT22;1907;49.238;9.262;2022-07-01T08:50:44;16.10;99.90
3784;DHT22;1907;49.238;9.262;2022-07-01T08:53:11;16.00;99.90
3784;DHT22;1907;49.238;9.262;2022-07-01T08:55:38;16.00;99.90
3784;DHT22;1907;49.238;9.262;2022-07-01T08:58:23;16.00;99.90
3784;DHT22;1907;49.238;9.262;2022-07-01T09:00:49;16.00;99.90
3784;DHT22;1907;49.238;9.262;2022-07-01T09:03:15;16.00;99.90
3784;DHT22;1907;49.238;9.262;2022-07-01T09:05:49;16.10;99.90
3784;DHT22;1907;49.238;9.262;2022-07-01T09:08:15;16.20;99.90
3784;DHT22;1907;49.238;9.262;2022-07-01T09:10:40;16.30;99.90
3784;DHT22;1907;49.238;9.262;2022-07-01T09:13:08;16.50;99.90
3784;DHT22;1907;49.238;9.262;2022-07-01T09:15:35;16.60;99.90
3784;DHT22;1907;49.238;9.262;2022-07-01T09:18:11;16.60;99.90
3784;DHT22;1907;49.238;9.262;2022-07-01T09:20:44;16.50;99.90
3784;DHT22;1907;49.238;9.262;2022-07-01T09:23:12;16.40;99.90
3784;DHT22;1907;49.238;9.262;2022-07-01T09:25:43;16.30;99.90
3784;DHT22;1907;49.238;9.262;2022-07-01T09:28:14;16.20;99.90
3784;DHT22;1907;49.238;9.262;2022-07-01T09:30:43;16.20;99.90
3784;DHT22;1907;49.238;9.262;2022-07-01T09:35:36;16.30;99.90
3784;DHT22;1907;49.238;9.262;2022-07-01T09:38:03;16.40;99.90
3784;DHT22;1907;49.238;9.262;2022-07-01T09:48:16;16.20;99.90
3784;DHT22;1907;49.238;9.262;2022-07-01T09:50:41;16.30;99.90
3784;DHT22;1907;49.238;9.262;2022-07-01T09:53:07;16.50;99.90
3784;DHT22;1907;49.238;9.262;2022-07-01T09:55:34;16.60;99.90
3784;DHT22;1907;49.238;9.262;2022-07-01T09:58:00;16.60;99.90
3784;DHT22;1907;49.238;9.262;2022-07-01T10:00:26;16.70;99.90
3784;DHT22;1907;49.238;9.262;2022-07-01T10:02:53;16.60;99.90
3784;DHT22;1907;49.238;9.262;2022-07-01T10:05:22;16.50;99.90
3784;DHT22;1907;49.238;9.262;2022-07-01T10:08:10;16.50;99.90
3784;DHT22;1907;49.238;9.262;2022-07-01T10:13:33;16.40;99.90
3784;DHT22;1907;49.238;9.262;2022-07-01T10:16:02;16.40;99.90
3784;DHT22;1907;49.238;9.262;2022-07-01T10:18:29;16.40;99.90
3784;DHT22;1907;49.238;9.262;2022-07-01T10:20:57;16.40;99.90
3784;DHT22;1907;49.238;9.262;2022-07-01T10:23:27;16.30;99.90
3784;DHT22;1907;49.238;9.262;2022-07-01T10:25:58;16.30;99.90
3784;DHT22;1907;49.238;9.262;2022-07-01T10:28:47;16.30;99.90
3784;DHT22;1907;49.238;9.262;2022-07-01T10:31:17;16.10;99.90
3784;DHT22;1907;49.238;9.262;2022-07-01T10:33:58;16.10;99.90
3784;DHT22;1907;49.238;9.262;2022-07-01T10:36:35;16.20;99.90
3784;DHT22;1907;49.238;9.262;2022-07-01T10:41:29;16.40;99.90
3784;DHT22;1907;49.238;9.262;2022-07-01T10:43:55;16.60;99.90
3784;DHT22;1907;49.238;9.262;2022-07-01T10:52:06;16.70;99.90
3784;DHT22;1907;49.238;9.262;2022-07-01T10:59:45;18.20;99.90
3784;DHT22;1907;49.238;9.262;2022-07-01T11:02:15;18.60;99.90
3784;DHT22;1907;49.238;9.262;2022-07-01T11:04:41;19.20;99.90
3784;DHT22;1907;49.238;9.262;2022-07-01T11:07:08;19.70;99.90
3784;DHT22;1907;49.238;9.262;2022-07-01T11:09:34;20.00;99.90
3784;DHT22;1907;49.238;9.262;2022-07-01T11:12:00;20.30;99.90
3784;DHT22;1907;49.238;9.262;2022-07-01T11:14:29;20.40;99.90
3784;DHT22;1907;49.238;9.262;2022-07-01T11:16:55;20.10;99.90
3784;DHT22;1907;49.238;9.262;2022-07-01T11:19:22;19.90;99.90
3784;DHT22;1907;49.238;9.262;2022-07-01T11:21:54;19.90;99.90
3784;DHT22;1907;49.238;9.262;2022-07-01T11:24:21;20.10;99.90
3784;DHT22;1907;49.238;9.262;2022-07-01T11:26:47;20.20;99.90
3784;DHT22;1907;49.238;9.262;2022-07-01T11:29:14;20.30;99.90
3784;DHT22;1907;49.238;9.262;2022-07-01T11:31:40;20.40;99.90
3784;DHT22;1907;49.238;9.262;2022-07-01T11:34:06;20.90;99.90
3784;DHT22;1907;49.238;9.262;2022-07-01T11:36:32;21.90;99.90
3784;DHT22;1907;49.238;9.262;2022-07-01T11:39:18;22.70;99.90
3784;DHT22;1907;49.238;9.262;2022-07-01T11:41:57;22.90;99.90
3784;DHT22;1907;49.238;9.262;2022-07-01T11:44:42;22.80;99.90
3784;DHT22;1907;49.238;9.262;2022-07-01T11:47:11;22.20;99.90
3784;DHT22;1907;49.238;9.262;2022-07-01T11:49:48;21.80;99.90
3784;DHT22;1907;49.238;9.262;2022-07-01T11:52:15;21.60;99.90
3784;DHT22;1907;49.238;9.262;2022-07-01T11:54:44;21.70;99.90
3784;DHT22;1907;49.238;9.262;2022-07-01T11:57:18;21.80;99.90
3784;DHT22;1907;49.238;9.262;2022-07-01T11:59:47;21.60;99.90
3784;DHT22;1907;49.238;9.262;2022-07-01T12:02:14;21.60;99.90
3784;DHT22;1907;49.238;9.262;2022-07-01T12:04:40;21.30;99.90
3784;DHT22;1907;49.238;9.262;2022-07-01T12:07:07;21.10;99.90
3784;DHT22;1907;49.238;9.262;2022-07-01T12:09:34;21.30;99.90
3784;DHT22;1907;49.238;9.262;2022-07-01T12:12:01;21.80;99.90
3784;DHT22;1907;49.238;9.262;2022-07-01T12:14:29;21.90;99.90
3784;DHT22;1907;49.238;9.262;2022-07-01T12:16:57;21.70;99.90
3784;DHT22;1907;49.238;9.262;2022-07-01T12:19:50;21.60;99.90
3784;DHT22;1907;49.238;9.262;2022-07-01T12:22:26;21.50;99.90
3784;DHT22;1907;49.238;9.262;2022-07-01T12:25:04;21.50;99.90
3784;DHT22;1907;49.238;9.262;2022-07-01T12:27:33;21.90;99.90
3784;DHT22;1907;49.238;9.262;2022-07-01T12:29:59;22.20;99.90
3784;DHT22;1907;49.238;9.262;2022-07-01T12:32:27;22.60;99.90
3784;DHT22;1907;49.238;9.262;2022-07-01T12:35:01;22.70;99.90
3784;DHT22;1907;49.238;9.262;2022-07-01T12:37:36;22.80;99.90
3784;DHT22;1907;49.238;9.262;2022-07-01T12:40:23;22.80;99.90
3784;DHT22;1907;49.238;9.262;2022-07-01T12:42:49;22.90;99.90
3784;DHT22;1907;49.238;9.262;2022-07-01T12:45:16;22.90;99.90
3784;DHT22;1907;49.238;9.262;2022-07-01T12:47:47;22.70;99.90
3784;DHT22;1907;49.238;9.262;2022-07-01T12:53:19;22.60;99.90
3784;DHT22;1907;49.238;9.262;2022-07-01T12:55:47;22.40;99.90
3784;DHT22;1907;49.238;9.262;2022-07-01T12:58:15;22.30;99.90
3784;DHT22;1907;49.238;9.262;2022-07-01T13:00:45;22.30;99.90
3784;DHT22;1907;49.238;9.262;2022-07-01T13:03:12;22.20;99.90
3784;DHT22;1907;49.238;9.262;2022-07-01T13:05:39;22.40;99.90
3784;DHT22;1907;49.238;9.262;2022-07-01T13:08:05;22.40;99.90
3784;DHT22;1907;49.238;9.262;2022-07-01T13:10:31;22.50;99.90
3784;DHT22;1907;49.238;9.262;2022-07-01T13:12:57;22.70;99.90
3784;DHT22;1907;49.238;9.262;2022-07-01T13:15:23;22.90;99.90
3784;DHT22;1907;49.238;9.262;2022-07-01T13:17:49;23.00;99.90
3784;DHT22;1907;49.238;9.262;2022-07-01T13:20:16;23.30;99.90
3784;DHT22;1907;49.238;9.262;2022-07-01T13:22:42;23.40;99.90
3784;DHT22;1907;49.238;9.262;2022-07-01T13:25:08;23.80;99.90
3784;DHT22;1907;49.238;9.262;2022-07-01T13:27:34;23.90;99.90
3784;DHT22;1907;49.238;9.262;2022-07-01T13:30:00;23.80;99.90
3784;DHT22;1907;49.238;9.262;2022-07-01T13:32:28;23.60;99.80
3784;DHT22;1907;49.238;9.262;2022-07-01T13:34:54;23.40;99.90
3784;DHT22;1907;49.238;9.262;2022-07-01T13:37:19;23.10;99.90
3784;DHT22;1907;49.238;9.262;2022-07-01T13:39:45;23.10;99.90
3784;DHT22;1907;49.238;9.262;2022-07-01T13:42:10;22.90;99.90
3784;DHT22;1907;49.238;9.262;2022-07-01T13:44:36;22.90;99.90
3784;DHT22;1907;49.238;9.262;2022-07-01T13:47:02;22.70;99.90
3784;DHT22;1907;49.238;9.262;2022-07-01T13:49:31;22.20;99.90
3784;DHT22;1907;49.238;9.262;2022-07-01T13:51:56;21.80;99.90
3784;DHT22;1907;49.238;9.262;2022-07-01T13:54:22;21.80;99.90
3784;DHT22;1907;49.238;9.262;2022-07-01T13:56:48;21.90;99.90
3784;DHT22;1907;49.238;9.262;2022-07-01T13:59:13;22.00;99.90
3784;DHT22;1907;49.238;9.262;2022-07-01T14:01:39;22.00;99.90
3784;DHT22;1907;49.238;9.262;2022-07-01T14:04:05;22.10;99.90
3784;DHT22;1907;49.238;9.262;2022-07-01T14:06:30;22.20;99.90
3784;DHT22;1907;49.238;9.262;2022-07-01T14:08:56;22.20;99.90
3784;DHT22;1907;49.238;9.262;2022-07-01T14:11:22;22.20;99.90
3784;DHT22;1907;49.238;9.262;2022-07-01T14:13:47;22.10;99.90
3784;DHT22;1907;49.238;9.262;2022-07-01T14:16:13;21.90;99.90
3784;DHT22;1907;49.238;9.262;2022-07-01T14:18:39;21.60;99.90
3784;DHT22;1907;49.238;9.262;2022-07-01T14:21:05;21.40;99.90
3784;DHT22;1907;49.238;9.262;2022-07-01T14:23:31;21.40;99.90
3784;DHT22;1907;49.238;9.262;2022-07-01T14:25:57;21.40;99.90
3784;DHT22;1907;49.238;9.262;2022-07-01T14:28:23;21.50;99.90
3784;DHT22;1907;49.238;9.262;2022-07-01T14:30:48;21.60;99.90
3784;DHT22;1907;49.238;9.262;2022-07-01T14:33:16;21.80;99.90
3784;DHT22;1907;49.238;9.262;2022-07-01T14:35:42;21.80;99.90
3784;DHT22;1907;49.238;9.262;2022-07-01T14:38:09;21.60;99.90
3784;DHT22;1907;49.238;9.262;2022-07-01T14:40:36;21.40;99.90
3784;DHT22;1907;49.238;9.262;2022-07-01T14:43:03;21.10;99.90
3784;DHT22;1907;49.238;9.262;2022-07-01T14:45:28;21.00;99.90
3784;DHT22;1907;49.238;9.262;2022-07-01T14:47:54;20.80;99.90
3784;DHT22;1907;49.238;9.262;2022-07-01T14:50:20;20.70;99.90
3784;DHT22;1907;49.238;9.262;2022-07-01T14:52:46;20.70;99.90
3784;DHT22;1907;49.238;9.262;2022-07-01T14:55:12;20.70;99.90
3784;DHT22;1907;49.238;9.262;2022-07-01T14:57:38;20.70;99.90
3784;DHT22;1907;49.238;9.262;2022-07-01T15:00:04;20.90;99.90
3784;DHT22;1907;49.238;9.262;2022-07-01T15:02:31;21.20;99.90
3784;DHT22;1907;49.238;9.262;2022-07-01T15:04:56;21.60;99.90
3784;DHT22;1907;49.238;9.262;2022-07-01T15:07:22;21.90;99.90
3784;DHT22;1907;49.238;9.262;2022-07-01T15:09:51;21.90;99.90
3784;DHT22;1907;49.238;9.262;2022-07-01T15:12:17;21.80;99.90
3784;DHT22;1907;49.238;9.262;2022-07-01T15:14:46;21.60;99.90
3784;DHT22;1907;49.238;9.262;2022-07-01T15:17:11;21.70;99.90
3784;DHT22;1907;49.238;9.262;2022-07-01T15:19:37;21.70;99.90
3784;DHT22;1907;49.238;9.262;2022-07-01T15:22:07;21.80;99.90
3784;DHT22;1907;49.238;9.262;2022-07-01T15:24:36;21.70;99.90
3784;DHT22;1907;49.238;9.262;2022-07-01T15:27:03;21.70;99.90
3784;DHT22;1907;49.238;9.262;2022-07-01T15:29:29;21.80;99.90
3784;DHT22;1907;49.238;9.262;2022-07-01T15:31:55;21.80;99.90
3784;DHT22;1907;49.238;9.262;2022-07-01T15:34:21;21.90;99.90
3784;DHT22;1907;49.238;9.262;2022-07-01T15:36:47;22.00;99.90
3784;DHT22;1907;49.238;9.262;2022-07-01T15:39:14;22.00;99.90
3784;DHT22;1907;49.238;9.262;2022-07-01T15:41:40;22.10;99.90
3784;DHT22;1907;49.238;9.262;2022-07-01T15:44:07;22.10;99.90
3784;DHT22;1907;49.238;9.262;2022-07-01T15:46:34;22.20;99.90
3784;DHT22;1907;49.238;9.262;2022-07-01T15:49:00;22.30;99.90
3784;DHT22;1907;49.238;9.262;2022-07-01T15:51:26;22.40;99.90
3784;DHT22;1907;49.238;9.262;2022-07-01T15:53:54;22.40;99.90
3784;DHT22;1907;49.238;9.262;2022-07-01T15:56:23;22.20;99.90
3784;DHT22;1907;49.238;9.262;2022-07-01T15:58:48;21.90;99.90
3784;DHT22;1907;49.238;9.262;2022-07-01T16:01:14;21.50;99.90
3784;DHT22;1907;49.238;9.262;2022-07-01T16:03:44;21.40;99.90
3784;DHT22;1907;49.238;9.262;2022-07-01T16:06:13;21.60;99.90
3784;DHT22;1907;49.238;9.262;2022-07-01T16:08:42;21.80;99.90
3784;DHT22;1907;49.238;9.262;2022-07-01T16:11:13;21.90;99.90
3784;DHT22;1907;49.238;9.262;2022-07-01T16:13:47;22.10;99.90
3784;DHT22;1907;49.238;9.262;2022-07-01T16:16:19;22.10;99.90
3784;DHT22;1907;49.238;9.262;2022-07-01T16:18:48;22.00;99.90
3784;DHT22;1907;49.238;9.262;2022-07-01T16:21:14;21.90;99.90
3784;DHT22;1907;49.238;9.262;2022-07-01T16:23:41;21.80;99.90
3784;DHT22;1907;49.238;9.262;2022-07-01T16:26:08;21.70;99.90
3784;DHT22;1907;49.238;9.262;2022-07-01T16:28:38;21.50;99.90
3784;DHT22;1907;49.238;9.262;2022-07-01T16:31:05;21.30;99.90